createdAt,value
2018-01-29T00:00:15.530Z,59.40
2018-01-29T00:02:43.816Z,59.40
2018-01-29T00:05:12.876Z,59.40
2018-01-29T00:07:41.150Z,59.50
2018-01-29T00:10:09.465Z,59.50
2018-01-29T00:12:38.528Z,59.50
2018-01-29T00:15:06.839Z,59.60
2018-01-29T00:17:35.113Z,59.50
2018-01-29T00:20:03.427Z,59.70
2018-01-29T00:22:31.704Z,59.80
2018-01-29T00:24:59.982Z,59.80
2018-01-29T00:27:28.298Z,59.90
2018-01-29T00:29:56.568Z,59.80
2018-01-29T00:32:24.869Z,59.90
2018-01-29T00:34:53.155Z,59.80
2018-01-29T00:37:21.840Z,59.90
2018-01-29T00:39:50.125Z,60.50
2018-01-29T00:42:18.405Z,59.80
2018-01-29T00:44:47.476Z,59.30
2018-01-29T00:47:15.751Z,59.80
2018-01-29T00:49:44.029Z,59.90
2018-01-29T00:52:12.301Z,60.00
2018-01-29T00:54:40.613Z,59.90
2018-01-29T00:57:09.705Z,59.90
2018-01-29T00:59:38.000Z,60.00
2018-01-29T01:02:07.212Z,60.30
2018-01-29T01:04:35.482Z,60.10
2018-01-29T01:07:04.546Z,60.00
2018-01-29T01:09:32.826Z,60.10
2018-01-29T01:12:01.101Z,60.10
2018-01-29T01:14:29.405Z,60.20
2018-01-29T01:16:58.434Z,60.20
2018-01-29T01:19:26.736Z,60.30
2018-01-29T01:21:55.045Z,60.30
2018-01-29T01:24:23.308Z,60.30
2018-01-29T01:26:51.591Z,60.30
2018-01-29T01:29:19.874Z,60.30
2018-01-29T01:31:48.175Z,60.30
2018-01-29T01:34:16.477Z,60.40
2018-01-29T01:36:44.768Z,60.40
2018-01-29T01:39:13.048Z,60.50
2018-01-29T01:41:41.360Z,60.50
2018-01-29T01:44:09.628Z,60.60
2018-01-29T01:46:37.879Z,60.30
2018-01-29T01:49:06.183Z,60.50
2018-01-29T01:51:34.464Z,60.50
2018-01-29T01:54:02.813Z,60.50
2018-01-29T01:56:31.836Z,60.50
2018-01-29T01:59:00.178Z,60.50
2018-01-29T02:01:28.434Z,60.50
2018-01-29T02:03:56.714Z,60.60
2018-01-29T02:06:25.001Z,60.60
2018-01-29T02:08:53.261Z,60.70
2018-01-29T02:11:21.552Z,60.60
2018-01-29T02:13:49.829Z,60.70
2018-01-29T02:16:18.121Z,60.70
2018-01-29T02:18:46.392Z,60.70
2018-01-29T02:21:14.724Z,60.70
2018-01-29T02:23:42.994Z,60.70
2018-01-29T02:26:11.390Z,60.50
2018-01-29T02:28:39.668Z,60.70
2018-01-29T02:31:07.926Z,60.60
2018-01-29T02:33:36.219Z,60.70
2018-01-29T02:36:04.491Z,60.70
2018-01-29T02:38:32.780Z,60.70
2018-01-29T02:41:01.819Z,60.70
2018-01-29T02:43:30.346Z,60.70
2018-01-29T02:45:58.601Z,60.70
2018-01-29T02:48:26.880Z,60.70
2018-01-29T02:50:55.189Z,60.70
2018-01-29T02:53:24.242Z,60.80
2018-01-29T02:55:53.313Z,61.50
2018-01-29T02:58:21.580Z,60.70
2018-01-29T03:00:49.920Z,60.90
2018-01-29T03:03:18.191Z,61.00
2018-01-29T03:05:47.100Z,60.90
2018-01-29T03:08:15.405Z,61.00
2018-01-29T03:10:43.676Z,60.90
2018-01-29T03:13:11.972Z,61.10
2018-01-29T03:15:40.272Z,61.00
2018-01-29T03:18:08.564Z,61.00
2018-01-29T03:20:36.840Z,61.00
2018-01-29T03:23:05.181Z,61.10
2018-01-29T03:25:33.445Z,61.00
2018-01-29T03:28:01.754Z,61.00
2018-01-29T03:30:30.074Z,61.10
2018-01-29T03:32:58.330Z,61.10
2018-01-29T03:35:26.653Z,61.10
2018-01-29T03:37:55.700Z,61.10
2018-01-29T03:40:23.989Z,61.20
2018-01-29T03:42:52.265Z,61.20
2018-01-29T03:45:20.631Z,61.40
2018-01-29T03:47:48.881Z,61.30
2018-01-29T03:50:17.156Z,61.30
2018-01-29T03:52:45.458Z,61.40
2018-01-29T03:55:13.722Z,61.20
2018-01-29T03:57:42.781Z,61.20
2018-01-29T04:00:11.084Z,61.20
2018-01-29T04:02:39.392Z,61.20
2018-01-29T04:05:07.664Z,61.30
2018-01-29T04:07:35.979Z,61.10
2018-01-29T04:10:04.370Z,61.10
2018-01-29T04:12:32.898Z,61.10
2018-01-29T04:15:02.690Z,61.30
2018-01-29T04:17:30.976Z,61.20
2018-01-29T04:19:59.265Z,61.10
2018-01-29T04:22:27.532Z,61.10
2018-01-29T04:24:55.824Z,61.30
2018-01-29T04:27:24.092Z,61.10
2018-01-29T04:29:52.375Z,61.00
2018-01-29T04:32:20.697Z,61.30
2018-01-29T04:34:48.956Z,61.00
2018-01-29T04:37:17.258Z,61.00
2018-01-29T04:39:45.521Z,61.00
2018-01-29T04:42:13.829Z,60.90
2018-01-29T04:44:42.865Z,61.00
2018-01-29T04:47:11.917Z,61.10
2018-01-29T04:49:41.055Z,61.00
2018-01-29T04:52:09.314Z,60.90
2018-01-29T04:54:37.650Z,60.90
2018-01-29T04:57:05.893Z,60.80
2018-01-29T04:59:34.196Z,60.90
2018-01-29T05:02:03.176Z,61.00
2018-01-29T05:04:31.519Z,61.10
2018-01-29T05:06:59.800Z,61.00
2018-01-29T05:09:28.082Z,61.00
2018-01-29T05:11:56.369Z,61.00
2018-01-29T05:14:24.640Z,60.90
2018-01-29T05:16:52.943Z,60.90
2018-01-29T05:19:21.973Z,61.00
2018-01-29T05:21:50.284Z,61.30
2018-01-29T05:24:18.591Z,60.80
2018-01-29T05:26:46.884Z,60.70
2018-01-29T05:29:15.152Z,60.80
2018-01-29T05:31:43.434Z,60.80
2018-01-29T05:34:11.738Z,60.90
2018-01-29T05:36:49.953Z,61.00
2018-01-29T05:39:18.255Z,61.00
2018-01-29T05:41:47.318Z,61.10
2018-01-29T05:44:15.614Z,61.10
2018-01-29T05:46:44.669Z,61.00
2018-01-29T05:49:12.987Z,60.90
2018-01-29T05:51:42.041Z,60.70
2018-01-29T05:54:10.312Z,60.80
2018-01-29T05:56:38.636Z,60.70
2018-01-29T05:59:06.915Z,60.60
2018-01-29T06:01:35.969Z,60.70
2018-01-29T06:04:04.230Z,60.80
2018-01-29T06:06:32.558Z,60.80
2018-01-29T06:09:00.844Z,61.00
2018-01-29T06:11:34.431Z,60.90
2018-01-29T06:14:03.451Z,61.10
2018-01-29T06:16:32.507Z,61.10
2018-01-29T06:19:00.816Z,61.10
2018-01-29T06:21:29.074Z,61.20
2018-01-29T06:23:57.369Z,61.30
2018-01-29T06:26:25.716Z,61.30
2018-01-29T06:28:54.023Z,60.80
2018-01-29T06:31:22.301Z,61.50
2018-01-29T06:33:50.636Z,61.50
2018-01-29T06:36:18.944Z,61.60
2018-01-29T06:38:47.196Z,61.50
2018-01-29T06:41:15.504Z,61.60
2018-01-29T06:43:43.771Z,61.70
2018-01-29T06:46:12.119Z,61.50
2018-01-29T06:48:41.115Z,61.50
2018-01-29T06:51:10.543Z,61.40
2018-01-29T06:53:38.937Z,61.40
2018-01-29T06:56:07.222Z,61.30
2018-01-29T06:58:35.522Z,61.20
2018-01-29T07:01:04.572Z,61.10
2018-01-29T07:03:32.853Z,61.30
2018-01-29T07:06:01.124Z,61.20
2018-01-29T07:08:29.420Z,61.10
2018-01-29T07:10:57.682Z,61.00
2018-01-29T07:13:25.992Z,61.00
2018-01-29T07:15:54.263Z,60.90
2018-01-29T07:18:22.533Z,60.90
2018-01-29T07:20:50.852Z,61.00
2018-01-29T07:23:19.131Z,60.90
2018-01-29T07:25:47.450Z,60.80
2018-01-29T07:28:15.744Z,60.80
2018-01-29T07:30:44.024Z,60.70
2018-01-29T07:33:12.300Z,60.40
2018-01-29T07:35:40.573Z,60.40
2018-01-29T07:38:08.866Z,60.40
2018-01-29T07:40:37.125Z,60.20
2018-01-29T07:43:05.463Z,60.20
2018-01-29T07:45:33.755Z,60.20
2018-01-29T07:48:02.075Z,60.20
2018-01-29T07:50:30.358Z,60.30
2018-01-29T07:52:58.641Z,60.30
2018-01-29T07:55:27.733Z,60.00
2018-01-29T07:57:56.012Z,60.10
2018-01-29T08:00:25.096Z,60.40
2018-01-29T08:02:53.405Z,60.10
2018-01-29T08:05:21.690Z,60.00
2018-01-29T08:07:50.000Z,59.90
2018-01-29T08:10:18.291Z,60.00
2018-01-29T08:12:46.594Z,60.00
2018-01-29T08:15:14.895Z,59.90
2018-01-29T08:17:43.963Z,59.70
2018-01-29T08:20:12.238Z,59.70
2018-01-29T08:22:40.579Z,59.70
2018-01-29T08:25:08.854Z,59.80
2018-01-29T08:27:37.127Z,59.70
2018-01-29T08:30:05.436Z,59.50
2018-01-29T08:32:33.722Z,59.50
2018-01-29T08:35:02.571Z,59.40
2018-01-29T08:37:30.848Z,59.50
2018-01-29T08:39:59.165Z,59.30
2018-01-29T08:42:27.450Z,59.20
2018-01-29T08:44:55.753Z,59.20
2018-01-29T08:47:24.827Z,59.10
2018-01-29T08:49:53.109Z,59.10
2018-01-29T08:52:21.413Z,59.00
2018-01-29T08:54:50.462Z,58.90
2018-01-29T08:57:19.181Z,58.80
2018-01-29T08:59:48.230Z,58.60
2018-01-29T09:02:16.554Z,58.70
2018-01-29T09:04:44.867Z,58.50
2018-01-29T09:07:13.153Z,58.50
2018-01-29T09:09:41.446Z,58.20
2018-01-29T09:12:09.739Z,58.30
2018-01-29T09:14:38.036Z,58.40
2018-01-29T09:17:06.330Z,58.10
2018-01-29T09:19:35.413Z,57.90
2018-01-29T09:22:03.701Z,57.90
2018-01-29T09:24:32.747Z,57.60
2018-01-29T09:27:01.056Z,57.60
2018-01-29T09:29:29.341Z,58.20
2018-01-29T09:31:57.652Z,57.70
2018-01-29T09:34:25.942Z,57.60
2018-01-29T09:36:54.260Z,57.70
2018-01-29T09:39:22.566Z,57.40
2018-01-29T09:41:51.641Z,57.10
2018-01-29T09:44:19.911Z,57.00
2018-01-29T09:46:48.298Z,56.80
2018-01-29T09:49:16.570Z,56.80
2018-01-29T09:51:44.981Z,56.90
2018-01-29T09:54:13.259Z,56.90
2018-01-29T09:56:42.324Z,56.70
2018-01-29T09:59:10.667Z,56.70
2018-01-29T10:01:38.995Z,57.00
2018-01-29T10:04:07.338Z,56.90
2018-01-29T10:06:35.643Z,56.90
2018-01-29T10:09:04.342Z,56.80
2018-01-29T10:11:32.627Z,56.80
2018-01-29T10:14:01.692Z,57.00
2018-01-29T10:16:30.028Z,57.00
2018-01-29T10:18:58.301Z,57.00
2018-01-29T10:21:26.624Z,56.90
2018-01-29T10:23:54.892Z,57.20
2018-01-29T10:26:23.198Z,57.10
2018-01-29T10:28:51.508Z,57.10
2018-01-29T10:31:20.637Z,57.30
2018-01-29T10:33:48.912Z,57.20
2018-01-29T10:36:17.222Z,57.10
2018-01-29T10:38:45.525Z,57.10
2018-01-29T10:41:13.789Z,57.20
2018-01-29T10:43:42.109Z,57.30
2018-01-29T10:46:10.396Z,57.10
2018-01-29T10:48:38.873Z,57.10
2018-01-29T10:51:07.173Z,56.90
2018-01-29T10:53:35.491Z,57.00
2018-01-29T10:56:03.757Z,57.00
2018-01-29T10:58:32.045Z,57.00
2018-01-29T11:01:07.500Z,56.90
2018-01-29T11:03:36.630Z,56.70
2018-01-29T11:06:04.946Z,56.70
2018-01-29T11:08:33.216Z,57.00
2018-01-29T11:11:01.531Z,56.80
2018-01-29T11:13:29.914Z,56.90
2018-01-29T11:15:58.989Z,57.00
2018-01-29T11:18:27.299Z,57.10
2018-01-29T11:20:56.443Z,57.10
2018-01-29T11:23:24.833Z,57.10
2018-01-29T11:25:54.072Z,57.00
2018-01-29T11:28:22.429Z,56.90
2018-01-29T11:30:50.756Z,56.90
2018-01-29T11:33:19.027Z,56.80
2018-01-29T11:35:47.321Z,56.70
2018-01-29T11:38:15.611Z,56.80
2018-01-29T11:40:44.136Z,56.60
2018-01-29T11:43:12.430Z,56.40
2018-01-29T11:45:40.746Z,56.40
2018-01-29T11:48:09.036Z,56.50
2018-01-29T11:50:37.331Z,56.40
2018-01-29T11:53:06.325Z,56.20
2018-01-29T11:55:34.604Z,56.20
2018-01-29T11:58:02.906Z,56.10
2018-01-29T12:00:32.041Z,56.10
2018-01-29T12:03:00.376Z,56.10
2018-01-29T12:05:29.435Z,56.10
2018-01-29T12:07:57.732Z,56.10
2018-01-29T12:10:26.137Z,56.20
2018-01-29T12:12:55.169Z,55.90
2018-01-29T12:15:23.474Z,55.80
2018-01-29T12:17:51.752Z,55.80
2018-01-29T12:20:20.056Z,55.90
2018-01-29T12:22:49.112Z,55.70
2018-01-29T12:25:17.411Z,55.70
2018-01-29T12:27:45.722Z,55.90
2018-01-29T12:30:14.781Z,55.80
2018-01-29T12:32:43.081Z,55.80
2018-01-29T12:35:12.195Z,55.60
2018-01-29T12:37:41.283Z,55.50
2018-01-29T12:40:10.370Z,55.40
2018-01-29T12:42:38.696Z,55.50
2018-01-29T12:45:06.970Z,55.60
2018-01-29T12:47:35.291Z,55.50
2018-01-29T12:50:03.586Z,55.50
2018-01-29T12:52:31.931Z,55.60
2018-01-29T12:55:00.244Z,55.60
2018-01-29T12:57:28.509Z,55.60
2018-01-29T12:59:56.825Z,55.60
2018-01-29T13:02:25.895Z,55.90
2018-01-29T13:04:54.212Z,55.80
2018-01-29T13:07:23.053Z,56.50
2018-01-29T13:09:52.150Z,55.60
2018-01-29T13:12:20.498Z,55.70
2018-01-29T13:14:48.806Z,56.20
2018-01-29T13:17:17.791Z,55.50
2018-01-29T13:19:47.018Z,55.60
2018-01-29T13:22:15.657Z,55.70
2018-01-29T13:24:43.955Z,55.50
2018-01-29T13:27:12.232Z,55.60
2018-01-29T13:29:41.220Z,55.40
2018-01-29T13:32:09.546Z,55.40
2018-01-29T13:34:38.420Z,55.50
2018-01-29T13:37:06.835Z,55.60
2018-01-29T13:39:35.277Z,55.50
2018-01-29T13:42:04.174Z,55.40
2018-01-29T13:44:32.510Z,55.40
2018-01-29T13:47:01.847Z,55.30
2018-01-29T13:49:30.913Z,55.30
2018-01-29T13:52:00.835Z,55.20
2018-01-29T13:54:29.154Z,55.20
2018-01-29T13:56:58.234Z,55.30
2018-01-29T13:59:26.514Z,55.30
2018-01-29T14:01:55.410Z,55.40
2018-01-29T14:04:27.014Z,55.40
2018-01-29T14:06:57.425Z,55.60
2018-01-29T14:09:25.693Z,55.40
2018-01-29T14:11:55.354Z,55.60
2018-01-29T14:14:24.581Z,55.70
2018-01-29T14:16:52.836Z,55.80
2018-01-29T14:19:21.275Z,55.60
2018-01-29T14:21:49.585Z,55.60
2018-01-29T14:24:17.904Z,55.70
2018-01-29T14:26:46.202Z,55.60
2018-01-29T14:29:14.769Z,55.70
2018-01-29T14:31:43.052Z,55.70
2018-01-29T14:34:12.198Z,55.60
2018-01-29T14:36:41.345Z,55.60
2018-01-29T14:39:10.390Z,55.50
2018-01-29T14:41:38.709Z,55.50
2018-01-29T14:44:07.001Z,55.50
2018-01-29T14:46:36.062Z,55.40
2018-01-29T14:49:04.429Z,55.50
2018-01-29T14:51:32.784Z,55.40
2018-01-29T14:54:01.124Z,55.50
2018-01-29T14:56:29.397Z,55.50
2018-01-29T14:58:57.708Z,55.50
2018-01-29T15:01:26.017Z,55.60
2018-01-29T15:03:54.335Z,55.60
2018-01-29T15:06:22.604Z,55.40
2018-01-29T15:08:50.938Z,56.00
2018-01-29T15:11:19.225Z,55.50
2018-01-29T15:13:48.435Z,55.50
2018-01-29T15:16:16.722Z,55.40
2018-01-29T15:18:44.992Z,55.50
2018-01-29T15:21:13.293Z,55.60
2018-01-29T15:23:41.566Z,55.60
2018-01-29T15:26:09.940Z,55.50
2018-01-29T15:28:38.226Z,55.60
2018-01-29T15:31:06.497Z,55.60
2018-01-29T15:33:35.628Z,55.90
2018-01-29T15:36:03.881Z,55.90
2018-01-29T15:38:32.197Z,55.60
2018-01-29T15:41:01.245Z,55.70
2018-01-29T15:43:30.370Z,55.80
2018-01-29T15:46:00.305Z,55.80
2018-01-29T15:48:28.593Z,55.70
2018-01-29T15:50:57.394Z,55.80
2018-01-29T15:53:26.708Z,55.90
2018-01-29T15:55:55.050Z,56.00
2018-01-29T15:58:23.323Z,56.00
2018-01-29T16:00:51.653Z,56.10
2018-01-29T16:03:19.928Z,56.10
2018-01-29T16:05:48.246Z,56.00
2018-01-29T16:08:17.698Z,56.20
2018-01-29T16:10:45.949Z,56.40
2018-01-29T16:13:15.211Z,56.10
2018-01-29T16:15:43.464Z,56.70
2018-01-29T16:18:11.835Z,56.10
2018-01-29T16:20:40.115Z,56.20
2018-01-29T16:23:08.544Z,56.20
2018-01-29T16:25:40.321Z,56.20
2018-01-29T16:28:09.427Z,56.20
2018-01-29T16:30:37.741Z,56.20
2018-01-29T16:33:06.025Z,56.10
2018-01-29T16:35:46.195Z,56.10
2018-01-29T16:38:36.560Z,56.10
2018-01-29T16:41:04.839Z,56.10
2018-01-29T16:43:33.159Z,56.00
2018-01-29T16:46:01.440Z,56.10
2018-01-29T16:48:29.781Z,56.10
2018-01-29T16:50:58.099Z,56.20
2018-01-29T16:53:27.157Z,56.20
2018-01-29T16:55:56.027Z,56.30
2018-01-29T16:58:24.297Z,56.20
2018-01-29T17:00:52.590Z,56.50
2018-01-29T17:03:21.012Z,56.30
2018-01-29T17:05:49.298Z,56.40
2018-01-29T17:08:17.582Z,56.20
2018-01-29T17:10:46.623Z,56.20
2018-01-29T17:13:14.946Z,56.10
2018-01-29T17:15:43.226Z,56.30
2018-01-29T17:18:11.595Z,56.70
2018-01-29T17:21:00.947Z,56.20
2018-01-29T17:23:29.310Z,56.20
2018-01-29T17:25:57.580Z,56.10
2018-01-29T17:28:26.461Z,56.20
2018-01-29T17:30:54.796Z,56.20
2018-01-29T17:33:23.077Z,56.20
2018-01-29T17:35:51.400Z,56.10
2018-01-29T17:38:19.678Z,56.20
2018-01-29T17:40:48.113Z,56.10
2018-01-29T17:43:16.440Z,56.00
2018-01-29T17:45:44.751Z,56.10
2018-01-29T17:48:13.064Z,56.00
2018-01-29T17:50:41.358Z,56.10
2018-01-29T17:53:09.686Z,55.90
2018-01-29T17:55:37.979Z,56.00
2018-01-29T17:58:06.364Z,55.90
2018-01-29T18:00:34.769Z,56.40
2018-01-29T18:03:03.099Z,55.80
2018-01-29T18:05:31.383Z,55.90
2018-01-29T18:07:59.810Z,55.80
2018-01-29T18:10:28.232Z,55.80
2018-01-29T18:12:56.513Z,55.80
2018-01-29T18:15:24.842Z,55.80
2018-01-29T18:17:53.886Z,55.60
2018-01-29T18:20:22.909Z,55.70
2018-01-29T18:22:51.224Z,55.60
2018-01-29T18:25:20.246Z,55.50
2018-01-29T18:27:48.559Z,55.50
2018-01-29T18:30:17.526Z,55.50
2018-01-29T18:32:45.837Z,55.50
2018-01-29T18:35:14.146Z,55.50
2018-01-29T18:37:42.476Z,55.40
2018-01-29T18:40:10.803Z,55.40
2018-01-29T18:42:39.908Z,55.40
2018-01-29T18:45:09.691Z,55.50
2018-01-29T18:47:38.006Z,55.50
2018-01-29T18:50:06.331Z,55.40
2018-01-29T18:52:34.683Z,55.30
2018-01-29T18:55:03.004Z,55.30
2018-01-29T18:57:31.378Z,55.40
2018-01-29T18:59:59.722Z,55.30
2018-01-29T19:02:28.112Z,55.20
2018-01-29T19:04:56.390Z,55.10
2018-01-29T19:07:25.623Z,55.10
2018-01-29T19:09:53.912Z,55.00
2018-01-29T19:12:23.032Z,54.80
2018-01-29T19:14:52.158Z,54.80
2018-01-29T19:17:20.490Z,54.80
2018-01-29T19:19:49.773Z,54.60
2018-01-29T19:22:18.217Z,54.60
2018-01-29T19:24:46.625Z,54.60
2018-01-29T19:27:14.926Z,54.70
2018-01-29T19:29:44.035Z,54.60
2018-01-29T19:32:12.363Z,54.70
2018-01-29T19:34:40.715Z,54.50
2018-01-29T19:37:08.982Z,54.60
2018-01-29T19:39:37.869Z,54.50
2018-01-29T19:42:06.234Z,54.40
2018-01-29T19:44:35.356Z,54.40
2018-01-29T19:47:03.695Z,54.50
2018-01-29T19:49:31.985Z,54.40
2018-01-29T19:52:01.096Z,54.30
2018-01-29T19:54:29.521Z,54.30
2018-01-29T19:56:58.265Z,54.30
2018-01-29T19:59:26.687Z,54.30
2018-01-29T20:01:55.828Z,54.10
2018-01-29T20:04:25.315Z,54.20
2018-01-29T20:06:54.708Z,54.20
2018-01-29T20:09:23.134Z,54.30
2018-01-29T20:11:52.176Z,55.00
2018-01-29T20:14:20.599Z,55.00
2018-01-29T20:16:48.955Z,55.60
2018-01-29T20:19:17.365Z,56.00
2018-01-29T20:21:46.463Z,56.70
2018-01-29T20:24:15.529Z,57.10
2018-01-29T20:26:43.897Z,57.10
2018-01-29T20:29:12.270Z,57.10
2018-01-29T20:31:40.635Z,57.80
2018-01-29T20:34:09.082Z,58.10
2018-01-29T20:36:37.604Z,58.30
2018-01-29T20:39:06.757Z,58.30
2018-01-29T20:41:35.060Z,58.30
2018-01-29T20:44:03.361Z,58.30
2018-01-29T20:46:31.808Z,58.30
2018-01-29T20:49:00.291Z,58.30
2018-01-29T20:51:28.657Z,58.20
2018-01-29T20:53:56.979Z,58.20
2018-01-29T20:56:25.408Z,58.20
2018-01-29T20:58:53.745Z,58.20
2018-01-29T21:01:22.092Z,58.10
2018-01-29T21:03:50.468Z,58.10
2018-01-29T21:06:19.687Z,58.00
2018-01-29T21:08:48.014Z,58.10
2018-01-29T21:11:16.334Z,58.00
2018-01-29T21:13:44.605Z,58.00
2018-01-29T21:16:12.943Z,57.80
2018-01-29T21:18:41.224Z,57.90
2018-01-29T21:21:09.502Z,57.80
2018-01-29T21:23:37.805Z,57.90
2018-01-29T21:26:06.858Z,58.60
2018-01-29T21:28:35.586Z,58.00
2018-01-29T21:31:04.658Z,58.20
2018-01-29T21:33:32.955Z,58.40
2018-01-29T21:36:01.435Z,58.30
2018-01-29T21:38:31.763Z,58.50
2018-01-29T21:41:00.936Z,58.60
2018-01-29T21:43:29.225Z,58.70
2018-01-29T21:45:57.639Z,58.90
2018-01-29T21:48:26.685Z,59.20
2018-01-29T21:50:55.058Z,59.20
2018-01-29T21:53:23.344Z,59.50
2018-01-29T21:55:51.654Z,59.60
2018-01-29T21:58:20.022Z,59.80
2018-01-29T22:00:49.179Z,60.00
2018-01-29T22:03:17.483Z,60.00
2018-01-29T22:05:45.881Z,60.20
2018-01-29T22:08:14.234Z,60.30
2018-01-29T22:10:42.587Z,60.30
2018-01-29T22:13:10.885Z,60.30
2018-01-29T22:15:39.281Z,60.20
2018-01-29T22:18:07.561Z,59.90
2018-01-29T22:20:36.021Z,60.20
2018-01-29T22:23:04.296Z,60.20
2018-01-29T22:25:32.650Z,60.20
2018-01-29T22:28:01.005Z,60.20
2018-01-29T22:30:29.350Z,60.20
2018-01-29T22:32:57.675Z,61.00
2018-01-29T22:35:26.009Z,60.20
2018-01-29T22:37:54.298Z,60.20
2018-01-29T22:40:22.641Z,60.30
2018-01-29T22:42:50.960Z,60.30
2018-01-29T22:45:19.263Z,60.30
2018-01-29T22:47:47.590Z,60.70
2018-01-29T22:50:15.919Z,61.30
2018-01-29T22:52:44.217Z,62.50
2018-01-29T22:55:12.574Z,63.30
2018-01-29T22:57:41.661Z,65.30
2018-01-29T23:00:10.306Z,65.40
2018-01-29T23:02:38.822Z,66.30
2018-01-29T23:05:07.122Z,66.80
2018-01-29T23:07:35.453Z,68.10
2018-01-29T23:10:03.830Z,67.90
2018-01-29T23:12:32.135Z,68.40
2018-01-29T23:15:00.481Z,68.40
2018-01-29T23:17:28.798Z,68.70
2018-01-29T23:19:57.064Z,69.70
2018-01-29T23:22:25.414Z,69.40
2018-01-29T23:24:53.796Z,69.60
2018-01-29T23:27:22.045Z,69.90
2018-01-29T23:29:50.361Z,70.20
2018-01-29T23:32:18.652Z,70.50
2018-01-29T23:34:47.022Z,70.70
2018-01-29T23:37:15.338Z,70.80
2018-01-29T23:39:43.906Z,71.00
2018-01-29T23:42:12.176Z,71.20
2018-01-29T23:44:40.550Z,71.20
2018-01-29T23:47:08.882Z,71.40
2018-01-29T23:49:37.183Z,71.50
2018-01-29T23:52:05.495Z,71.60
2018-01-29T23:54:33.760Z,71.70
2018-01-29T23:57:02.070Z,71.90
2018-01-29T23:59:31.135Z,71.90
